Latest Weather Observations for Croker Island Airport

IDD60801

Issued at 10:35 pm CST Saturday 26 July 2014 (issued every 30 minutes, with the page automatically refreshed every 10 minutes)

About weather observations | Map of weather stations | Latest weather observations for NT | Other Formats
Station Details ID: 014308 Name: CROKER ISLAND AIRPORT Lat: -11.16 Lon: 132.48 Height: 9.2 m
Data from the previous 72 hours. | See also: Recent months for locations in Northern Territory
Date/Time
CST
Temp
°C
App
Temp
°C
Dew
Point
Rel
Hum
%
Delta-T
°C
Wind Press
QNH
hPa
Press
MSL
hPa
Rain
since 9 am
mm
Dir
 
Spd
km/h
Gust
km/h
Spd
kts
Gust
kts
26/10:30pm 24.4 25.6 21.5 84 1.9 E 17 26 9 14 1017.0 1016.9 0.0
26/10:00pm 24.1 25.9 21.2 84 1.9 E 13 19 7 10 1016.9 - 0.0
26/09:30pm 23.8 25.6 21.1 85 1.8 ENE 13 19 7 10 1016.8 1016.7 0.0
26/09:00pm 23.4 25.3 20.5 84 1.9 ENE 11 15 6 8 1016.5 1016.4 0.0
26/08:30pm 23.3 25.5 20.4 84 1.9 ENE 9 13 5 7 1016.5 1016.4 0.0
26/08:00pm 23.5 25.6 20.2 82 2.1 ENE 9 13 5 7 1016.1 - 0.0
26/07:30pm 23.8 25.5 20.1 80 2.4 ENE 11 17 6 9 1015.9 1015.8 0.0
26/07:00pm 24.1 25.3 20.0 78 2.6 ENE 13 19 7 10 1015.7 - 0.0
26/06:30pm 24.7 25.0 19.5 73 3.3 ENE 17 26 9 14 1015.3 1015.2 0.0
26/06:00pm 25.5 25.2 19.6 70 3.8 ENE 20 35 11 19 1015.2 1015.1 0.0
26/05:30pm 25.9 25.5 20.2 71 3.7 E 22 37 12 20 1015.0 1014.9 0.0
26/05:00pm 26.2 24.6 20.1 69 4.0 E 28 43 15 23 1014.9 - 0.0
26/04:30pm 26.9 24.3 18.7 60 5.2 E 30 39 16 21 1014.6 1014.5 0.0
26/04:00pm 27.5 26.2 19.0 59 5.5 E 24 41 13 22 1014.4 - 0.0
26/03:30pm 27.7 26.4 19.0 59 5.6 ENE 24 35 13 19 1014.4 1014.3 0.0
26/03:00pm 28.3 28.0 19.5 59 5.7 E 20 28 11 15 1014.5 1014.4 0.0
26/02:30pm 28.0 26.6 18.7 57 6.0 E 24 37 13 20 1014.5 1014.4 0.0
26/02:00pm 28.1 28.3 20.1 62 5.2 E 19 32 10 17 1014.9 - 0.0
26/01:30pm 28.5 29.0 20.8 63 5.1 E 19 28 10 15 1015.3 1015.2 0.0
26/01:00pm 27.4 27.4 19.7 63 5.0 E 19 28 10 15 1015.8 - 0.0
26/12:30pm 27.6 28.2 20.2 64 4.8 ESE 17 26 9 14 1016.1 1016.0 0.0
26/12:00pm 27.6 28.0 19.9 63 5.0 ESE 17 24 9 13 1016.4 1016.3 0.0
26/11:30am 28.3 28.5 20.1 61 5.4 E 19 28 10 15 1016.7 1016.6 0.0
26/11:00am 27.9 28.5 20.2 63 5.0 E 17 22 9 12 1017.0 - 0.0
26/10:30am 27.6 28.7 20.4 65 4.7 E 15 20 8 11 1017.1 1017.0 0.0
26/10:00am 27.3 28.2 20.9 68 4.2 E 17 22 9 12 1017.3 - 0.0
26/09:30am 26.5 28.0 20.6 70 3.9 E 13 20 7 11 1017.3 1017.2 0.0
26/09:00am 25.6 27.4 21.1 76 3.0 ESE 13 20 7 11 1017.3 1017.2 0.0
26/08:30am 24.4 26.1 20.9 81 2.3 ESE 13 20 7 11 1017.0 1016.9 0.0
26/08:00am 23.2 25.2 20.7 86 1.6 SE 11 15 6 8 1016.9 - 0.0
26/07:30am 22.8 24.8 20.7 88 1.4 SE 11 17 6 9 1016.8 1016.7 0.0
26/07:00am 22.9 25.4 21.0 89 1.2 SE 9 15 5 8 1016.6 - 0.0
26/06:30am 22.9 25.4 21.0 89 1.2 SE 9 17 5 9 1016.4 1016.3 0.0
26/06:00am 22.9 25.3 20.8 88 1.4 SE 9 13 5 7 1016.1 1016.0 0.0
26/05:30am 23.4 24.7 20.9 86 1.6 E 15 20 8 11 1015.9 1015.8 0.0
26/05:00am 23.5 24.9 21.0 86 1.6 ESE 15 24 8 13 1015.8 - 0.0
26/04:30am 23.7 25.4 21.6 88 1.4 E 15 28 8 15 1015.7 1015.6 0.0
26/04:00am 23.4 25.5 21.7 90 1.1 E 13 17 7 9 1015.6 - 0.0
26/03:30am 23.2 25.8 22.0 93 0.8 E 11 19 6 10 1015.8 1015.7 0.0
26/03:00am 22.9 25.8 22.4 97 0.3 E 11 20 6 11 1015.8 1015.7 0.0
26/02:30am 22.1 25.3 21.6 97 0.3 E 7 11 4 6 1015.7 1015.6 0.0
26/02:00am 21.5 24.8 20.8 96 0.5 E 4 6 2 3 1015.8 - 0.0
26/01:30am 21.1 24.2 20.3 95 0.5 E 4 4 2 2 1016.0 1015.9 0.0
26/01:00am 21.7 24.7 20.9 95 0.5 ENE 6 7 3 4 1015.9 - 0.0
26/12:30am 21.4 24.2 20.4 94 0.6 E 6 6 3 3 1016.2 1016.1 0.0
26/12:00am 20.9 23.7 19.6 92 0.8 E 4 4 2 2 1016.3 1016.2 0.0
 
Date/Time
CST
Temp
°C
App
Temp
°C
Dew
Point
Rel
Hum
%
Delta-T
°C
Wind Press
QNH
hPa
Press
MSL
hPa
Rain
since 9 am
mm
Dir
 
Spd
km/h
Gust
km/h
Spd
kts
Gust
kts
25/11:30pm 21.3 24.2 19.9 92 0.9 E 4 6 2 3 1016.4 1016.3 0.0
25/11:00pm 21.4 24.3 19.9 91 1.0 E 4 6 2 3 1016.4 - 0.0
25/10:30pm 22.0 24.8 20.5 91 1.0 ENE 6 7 3 4 1016.7 1016.6 0.0
25/10:00pm 22.2 25.4 20.5 90 1.1 ENE 4 6 2 3 1016.9 - 0.0
25/09:30pm 22.1 25.9 20.2 89 1.2 CALM 0 0 0 0 1016.6 1016.5 0.0
25/09:00pm 22.5 26.4 20.4 88 1.4 CALM 0 0 0 0 1016.3 1016.2 0.0
25/08:30pm 23.0 27.0 20.5 86 1.6 CALM 0 0 0 0 1016.2 1016.1 0.0
25/08:00pm 23.4 27.6 20.9 86 1.6 CALM 0 2 0 1 1015.7 - 0.0
25/07:30pm 23.7 26.6 21.0 85 1.8 E 7 11 4 6 1015.2 1015.1 0.0
25/07:00pm 24.0 26.9 21.1 84 1.9 E 7 11 4 6 1014.9 - 0.0
25/06:30pm 24.6 26.4 21.1 81 2.3 E 13 19 7 10 1014.4 1014.3 0.0
25/06:00pm 25.5 26.7 20.7 75 3.1 ENE 15 19 8 10 1014.1 1014.0 0.0
25/05:30pm 26.4 28.1 20.9 72 3.6 ENE 13 19 7 10 1014.0 1013.9 0.0
25/05:00pm 27.0 28.6 20.8 69 4.1 ENE 13 19 7 10 1013.8 - 0.0
25/04:30pm 27.2 28.3 20.5 67 4.4 ENE 15 20 8 11 1013.6 1013.5 0.0
25/04:00pm 27.6 28.4 20.7 66 4.6 ENE 17 22 9 12 1013.7 - 0.0
25/03:30pm 28.5 29.0 20.0 60 5.6 ENE 17 22 9 12 1013.8 1013.7 0.0
25/03:00pm 28.7 29.0 19.6 58 5.9 E 17 26 9 14 1013.9 1013.8 0.0
25/02:30pm 28.5 28.6 20.0 60 5.6 ENE 19 28 10 15 1014.1 1014.0 0.0
25/02:00pm 28.9 29.1 20.1 59 5.8 E 19 30 10 16 1014.6 - 0.0
25/01:30pm 28.8 29.1 19.7 58 5.9 ENE 17 24 9 13 1015.0 1014.9 0.0
25/01:00pm 28.8 28.9 20.0 59 5.8 E 19 30 10 16 1015.3 - 0.0
25/12:30pm 27.8 28.3 20.1 63 5.0 E 17 24 9 13 1015.7 1015.6 0.0
25/12:00pm 28.8 28.8 19.7 58 5.9 E 19 26 10 14 1016.1 1016.0 0.0
25/11:30am 28.1 28.9 20.6 63 4.9 E 17 26 9 14 1016.4 1016.3 0.0
25/11:00am 27.8 28.3 20.9 66 4.6 E 19 24 10 13 1016.5 - 0.0
25/10:30am 27.4 28.9 21.2 69 4.1 E 15 24 8 13 1016.8 1016.7 0.0
25/10:00am 25.8 28.2 21.5 77 2.9 SE 11 19 6 10 1016.8 - 0.0
25/09:30am 25.4 27.9 21.7 80 2.5 SE 11 17 6 9 1016.8 1016.7 0.0
25/09:00am 24.4 27.4 22.7 90 1.1 SE 11 17 6 9 1016.5 1016.4 -
25/08:30am 23.2 25.5 22.0 93 0.8 SSE 13 20 7 11 1016.5 1016.4 -
25/08:00am 23.5 27.6 23.2 98 0.2 S 7 13 4 7 1016.1 - -
25/07:30am 22.0 25.4 21.7 98 0.2 SSE 6 7 3 4 1015.8 1015.7 -
25/07:00am 20.8 23.8 20.1 96 0.4 SE 4 6 2 3 1015.2 - -
25/06:30am 20.8 23.4 20.1 96 0.4 E 6 7 3 4 1014.8 1014.7 -
25/06:00am 20.7 23.3 20.0 96 0.4 E 6 7 3 4 1014.6 1014.5 -
25/05:30am 20.4 22.8 19.6 95 0.5 E 6 7 3 4 1014.5 1014.4 -
25/05:00am 19.7 22.1 18.7 94 0.6 E 4 6 2 3 1014.5 - -
25/04:30am 19.7 22.0 18.5 93 0.7 E 4 6 2 3 1014.3 1014.2 -
25/04:00am 20.3 22.5 19.1 93 0.8 E 6 7 3 4 1014.3 - -
25/03:30am 20.7 23.1 19.7 94 0.6 E 6 7 3 4 1014.2 1014.1 -
25/03:00am 20.7 23.1 19.7 94 0.6 ENE 6 7 3 4 1014.2 1014.1 -
 
Date/Time
CST
Temp
°C
App
Temp
°C
Dew
Point
Rel
Hum
%
Delta-T
°C
Wind Press
QNH
hPa
Press
MSL
hPa
Rain
since 9 am
mm
Dir
 
Spd
km/h
Gust
km/h
Spd
kts
Gust
kts
24/11:30pm 21.2 23.9 19.5 90 1.1 ENE 4 6 2 3 1014.8 1014.7 0.0
24/11:00pm 21.5 24.0 19.8 90 1.1 ENE 6 7 3 4 1014.6 - 0.0
24/10:30pm 21.3 23.9 19.2 88 1.3 ENE 4 6 2 3 1014.6 1014.5 0.0
24/10:00pm 22.0 24.5 19.9 88 1.3 ENE 6 7 3 4 1014.4 - 0.0
24/09:30pm 21.4 24.1 18.6 84 1.8 E 2 4 1 2 1014.4 1014.3 0.0
24/09:00pm 22.7 25.7 19.3 81 2.2 NE 2 6 1 3 1014.0 1013.9 0.0
24/08:30pm 23.1 25.5 19.7 81 2.2 NE 6 7 3 4 1013.7 1013.6 0.0
24/08:00pm 23.4 25.9 19.8 80 2.3 NE 6 9 3 5 1013.2 - 0.0
24/07:30pm 23.6 25.8 19.5 78 2.6 ENE 7 9 4 5 1012.7 1012.6 0.0
24/07:00pm 24.1 26.6 19.0 73 3.2 ENE 4 6 2 3 1012.5 - 0.0
24/06:30pm 25.1 26.6 18.8 68 4.0 ENE 9 13 5 7 1012.2 1012.1 0.0
24/06:00pm 26.3 27.6 18.4 61 5.0 ENE 9 13 5 7 1011.9 1011.8 0.0
24/05:30pm 27.0 27.5 17.5 56 6.0 ENE 11 17 6 9 1011.6 1011.5 0.0
24/05:00pm 27.5 27.7 17.7 55 6.2 ENE 13 19 7 10 1011.5 - 0.0
24/04:30pm 28.2 28.8 18.6 56 6.2 NE 13 19 7 10 1011.3 1011.2 0.0
24/04:00pm 28.4 27.8 16.7 49 7.3 E 15 20 8 11 1011.2 - 0.0
24/03:30pm 28.6 28.4 17.5 51 7.0 ENE 15 20 8 11 1011.3 1011.2 0.0
24/03:00pm 28.7 28.5 18.5 54 6.5 E 17 24 9 13 1011.5 1011.4 0.0
24/02:30pm 28.7 28.8 19.1 56 6.2 ENE 17 26 9 14 1011.8 1011.7 0.0
24/02:00pm 29.0 30.3 20.2 59 5.8 E 13 22 7 12 1012.4 - 0.0
24/01:30pm 28.2 28.8 19.4 59 5.7 E 15 24 8 13 1013.0 1012.9 0.0
24/01:00pm 28.3 29.1 19.8 60 5.5 ENE 15 26 8 14 1013.6 - 0.0
24/12:30pm 28.1 28.5 19.1 58 5.8 ENE 15 24 8 13 1014.0 1013.9 0.0
24/12:00pm 28.0 28.9 20.0 61 5.2 E 15 20 8 11 1014.6 1014.5 0.0
24/11:30am 26.9 27.8 20.0 66 4.5 E 15 22 8 12 1014.9 1014.8 0.0
24/11:00am 26.1 27.5 20.4 71 3.7 E 13 20 7 11 1015.1 - 0.0
24/10:30am 25.7 27.2 20.5 73 3.4 E 13 19 7 10 1015.5 1015.4 0.0
24/10:00am 26.0 27.2 20.6 72 3.5 E 15 22 8 12 1015.4 - 0.0
24/09:30am 26.0 28.7 21.4 76 3.0 E 9 15 5 8 1015.2 1015.1 0.0
24/09:00am 24.4 26.5 20.9 81 2.3 SSE 11 19 6 10 1015.2 1015.1 0.0
24/08:30am 24.8 26.2 21.1 80 2.4 ESE 15 20 8 11 1014.7 1014.6 0.0
24/08:00am 23.1 25.1 21.5 91 1.1 E 13 17 7 9 1014.1 - 0.0
24/07:30am 21.9 24.7 20.9 94 0.7 E 7 11 4 6 1013.6 1013.5 0.0
24/07:00am 21.3 23.9 20.5 95 0.5 E 7 11 4 6 1013.1 - 0.0
24/06:30am 21.3 23.2 20.6 96 0.5 ENE 11 15 6 8 1012.8 1012.7 0.0
24/06:00am 21.8 24.5 21.3 97 0.3 ESE 9 13 5 7 1012.6 1012.5 0.0
24/05:30am 21.2 23.9 20.7 97 0.3 SSE 7 11 4 6 1012.6 1012.5 0.0
24/05:00am 19.6 21.4 18.8 95 0.5 ESE 7 9 4 5 1012.6 - 0.0
24/04:30am 20.1 22.2 19.4 96 0.4 E 7 7 4 4 1012.5 1012.4 0.0
24/04:00am 20.2 22.4 19.5 96 0.4 SE 7 9 4 5 1012.6 - 0.0
24/03:30am 19.1 20.7 18.3 95 0.5 SE 7 7 4 4 1012.8 1012.7 0.0
24/03:00am 19.1 20.6 18.1 94 0.6 E 7 7 4 4 1012.9 1012.8 0.0
24/02:30am 20.0 22.5 19.0 94 0.6 ENE 4 4 2 2 1013.2 1013.1 0.0
24/02:00am 19.4 22.3 18.2 93 0.7 CALM 0 0 0 0 1013.3 - 0.0
24/01:30am 19.3 22.2 18.1 93 0.7 CALM 0 0 0 0 1013.5 1013.4 0.0
24/01:00am 19.6 22.2 18.3 92 0.8 ENE 2 2 1 1 1013.5 - 0.0
24/12:30am 19.6 22.1 18.1 91 0.9 ENE 2 4 1 2 1013.7 1013.6 0.0
24/12:00am 20.0 22.3 18.5 91 0.9 E 4 4 2 2 1013.7 1013.6 0.0
 
Date/Time
CST
Temp
°C
App
Temp
°C
Dew
Point
Rel
Hum
%
Delta-T
°C
Wind Press
QNH
hPa
Press
MSL
hPa
Rain
since 9 am
mm
Dir
 
Spd
km/h
Gust
km/h
Spd
kts
Gust
kts
23/11:30pm 20.4 22.3 18.5 89 1.2 E 6 6 3 3 1013.7 1013.6 0.0
23/11:00pm 20.7 22.6 18.6 88 1.3 E 6 7 3 4 1013.7 - 0.0

Other Formats:

Comma delimited format used in spreadsheet applications
http://www.bom.gov.au/fwo/IDD60801/IDD60801.94108.axf

JavaScript Object Notation format (JSON) in row-major order
http://www.bom.gov.au/fwo/IDD60801/IDD60801.94108.json